Dennis J. Pasentine — WDF2813 — position and weather

sailwx.info

Track history (hours):
 
Tides and Currents Weather Stations Pressure Air Temp Water Temp Dewpoint Dewpoint Depression Visibility Wind Speed Wind Dir Waves Ship Positions

Dennis J. Pasentine

Owner: Florida Marine Transporters, Inc., Mandeville, LA. More information available from US FCC via Universal Licensing System and Coast Guard Vessel Documentation Center.

Last reported at 2015-Jun-16 20:32 UTC. Time now 2015-Jun-30 21:24 UTC.
Position N 30°41' W 091°21'.
Warning: this ship's position is 14 days out of date.

Length 42 m.

Type: Towing. MMSI: 367432180.

Date/timePositionNaut miles runAvg speedWind from/ knotsBaromVisibWave heightAir tempDewpointWater temp
2015-Jun-16 20:32N 30°41' W 091°21'5 4.8
2015-Jun-16 19:33N 30°37' W 091°17'3 3.1
2015-Jun-16 18:33N 30°34' W 091°17'3 3.1
2015-Jun-16 17:33N 30°31' W 091°16'3 2.9
2015-Jun-16 16:33N 30°31' W 091°13'5 4.9
2015-Jun-16 15:33N 30°27' W 091°12'4 3.7
2015-Jun-16 14:33N 30°23' W 091°13'0 0.0
2015-Jun-16 13:33N 30°23' W 091°13'0 0.0
2015-Jun-16 12:33N 30°23' W 091°13'0 0.0
2015-Jun-16 11:33N 30°23' W 091°13'0 0.0
2015-Jun-16 10:33N 30°23' W 091°13'0 0.0
2015-Jun-16 09:33N 30°23' W 091°13'0 0.0
2015-Jun-16 08:33N 30°23' W 091°13'0 0.0
2015-Jun-16 07:33N 30°23' W 091°13'1 1.5
2015-Jun-16 06:33N 30°22' W 091°14'4 4.4
2015-Jun-16 05:33N 30°20' W 091°09'3 2.6
2015-Jun-16 04:32N 30°19' W 091°12'63 1.8
2015-Jun-14 18:18N 29°55' W 090°05'1 0.6
2015-Jun-14 17:10N 29°54' W 090°05'0 0.0
2015-Jun-13 02:33N 29°54' W 090°05'0 0.0
2015-Jun-13 01:30N 29°54' W 090°05'0 0.0
2015-Jun-13 00:30N 29°54' W 090°05'2 2.0
2015-Jun-12 23:29N 29°54' W 090°07'  
2015-Jun-10 12:20N 30°02' W 090°37'32 4.0
2015-Jun-10 04:22N 30°19' W 091°09'6 6.8
2015-Jun-10 03:33N 30°22' W 091°14'9 8.9
2015-Jun-10 02:34N 30°30' W 091°12'2 2.2
2015-Jun-10 01:34N 30°31' W 091°15'3 3.1
2015-Jun-10 00:34N 30°34' W 091°15'6 5.6
2015-Jun-09 23:33N 30°39' W 091°18'14 6.8
2015-Jun-09 21:27N 30°44' W 091°33'  
Track history (hours):
 
Tides and Currents Weather Stations Pressure Air Temp Water Temp Dewpoint Dewpoint Depression Visibility Wind Speed Wind Dir Waves Ship Positions

Dennis J. Pasentine

Owner: Florida Marine Transporters, Inc., Mandeville, LA. More information available from US FCC via Universal Licensing System and Coast Guard Vessel Documentation Center.

Last reported at 2015-Jun-16 20:32 UTC. Time now 2015-Jun-30 21:24 UTC.
Position N 30°41' W 091°21'.
Warning: this ship's position is 14 days out of date.

Length 42 m.

Type: Towing. MMSI: 367432180.

Date/timePositionNaut miles runAvg speedWind from/ knotsBaromVisibWave heightAir tempDewpointWater temp
2015-Jun-16 20:32N 30°41' W 091°21'5 4.8
2015-Jun-16 19:33N 30°37' W 091°17'3 3.1
2015-Jun-16 18:33N 30°34' W 091°17'3 3.1
2015-Jun-16 17:33N 30°31' W 091°16'3 2.9
2015-Jun-16 16:33N 30°31' W 091°13'5 4.9
2015-Jun-16 15:33N 30°27' W 091°12'4 3.7
2015-Jun-16 14:33N 30°23' W 091°13'0 0.0
2015-Jun-16 13:33N 30°23' W 091°13'0 0.0
2015-Jun-16 12:33N 30°23' W 091°13'0 0.0
2015-Jun-16 11:33N 30°23' W 091°13'0 0.0
2015-Jun-16 10:33N 30°23' W 091°13'0 0.0
2015-Jun-16 09:33N 30°23' W 091°13'0 0.0
2015-Jun-16 08:33N 30°23' W 091°13'0 0.0
2015-Jun-16 07:33N 30°23' W 091°13'1 1.5
2015-Jun-16 06:33N 30°22' W 091°14'4 4.4
2015-Jun-16 05:33N 30°20' W 091°09'3 2.6
2015-Jun-16 04:32N 30°19' W 091°12'63 1.8
2015-Jun-14 18:18N 29°55' W 090°05'1 0.6
2015-Jun-14 17:10N 29°54' W 090°05'0 0.0
2015-Jun-13 02:33N 29°54' W 090°05'0 0.0
2015-Jun-13 01:30N 29°54' W 090°05'0 0.0
2015-Jun-13 00:30N 29°54' W 090°05'2 2.0
2015-Jun-12 23:29N 29°54' W 090°07'  
2015-Jun-10 12:20N 30°02' W 090°37'32 4.0
2015-Jun-10 04:22N 30°19' W 091°09'6 6.8
2015-Jun-10 03:33N 30°22' W 091°14'9 8.9
2015-Jun-10 02:34N 30°30' W 091°12'2 2.2
2015-Jun-10 01:34N 30°31' W 091°15'3 3.1
2015-Jun-10 00:34N 30°34' W 091°15'6 5.6
2015-Jun-09 23:33N 30°39' W 091°18'14 6.8
2015-Jun-09 21:27N 30°44' W 091°33'  

Dump ship's entire track history